sensor_id;sensor_type;location;lat;lon;timestamp;P1;durP1;ratioP1;P2;durP2;ratioP2
38182;SDS011;23991;52.430;10.586;2023-03-11T00:00:57;11.55;;;7.15;;
38182;SDS011;23991;52.430;10.586;2023-03-11T00:03:22;10.25;;;6.85;;
38182;SDS011;23991;52.430;10.586;2023-03-11T00:05:48;11.77;;;8.13;;
38182;SDS011;23991;52.430;10.586;2023-03-11T00:08:16;12.00;;;6.68;;
38182;SDS011;23991;52.430;10.586;2023-03-11T00:10:44;13.00;;;7.30;;
38182;SDS011;23991;52.430;10.586;2023-03-11T00:13:11;10.82;;;7.07;;
38182;SDS011;23991;52.430;10.586;2023-03-11T00:15:39;11.20;;;6.60;;
38182;SDS011;23991;52.430;10.586;2023-03-11T00:20:38;8.30;;;5.70;;
38182;SDS011;23991;52.430;10.586;2023-03-11T00:23:06;11.30;;;6.07;;
38182;SDS011;23991;52.430;10.586;2023-03-11T00:25:33;8.10;;;5.18;;
38182;SDS011;23991;52.430;10.586;2023-03-11T00:28:00;8.13;;;5.20;;
38182;SDS011;23991;52.430;10.586;2023-03-11T00:30:26;10.80;;;5.85;;
38182;SDS011;23991;52.430;10.586;2023-03-11T00:32:53;9.27;;;5.90;;
38182;SDS011;23991;52.430;10.586;2023-03-11T00:35:24;8.88;;;5.55;;
38182;SDS011;23991;52.430;10.586;2023-03-11T00:37:52;9.82;;;5.88;;
38182;SDS011;23991;52.430;10.586;2023-03-11T00:40:19;8.55;;;5.65;;
38182;SDS011;23991;52.430;10.586;2023-03-11T00:42:46;8.95;;;6.13;;
38182;SDS011;23991;52.430;10.586;2023-03-11T00:45:11;10.00;;;6.32;;
38182;SDS011;23991;52.430;10.586;2023-03-11T00:47:38;9.38;;;6.20;;
38182;SDS011;23991;52.430;10.586;2023-03-11T00:50:04;12.15;;;7.30;;
38182;SDS011;23991;52.430;10.586;2023-03-11T00:52:30;9.93;;;6.70;;
38182;SDS011;23991;52.430;10.586;2023-03-11T00:54:57;10.05;;;6.85;;
38182;SDS011;23991;52.430;10.586;2023-03-11T00:57:23;10.95;;;7.20;;
38182;SDS011;23991;52.430;10.586;2023-03-11T00:59:48;11.68;;;7.25;;
38182;SDS011;23991;52.430;10.586;2023-03-11T01:02:14;11.30;;;7.25;;
38182;SDS011;23991;52.430;10.586;2023-03-11T01:04:39;10.40;;;7.50;;
38182;SDS011;23991;52.430;10.586;2023-03-11T01:07:05;10.65;;;7.03;;
38182;SDS011;23991;52.430;10.586;2023-03-11T01:09:30;11.25;;;6.95;;
38182;SDS011;23991;52.430;10.586;2023-03-11T01:11:56;11.35;;;7.22;;
38182;SDS011;23991;52.430;10.586;2023-03-11T01:14:21;12.55;;;7.55;;
38182;SDS011;23991;52.430;10.586;2023-03-11T01:16:47;10.73;;;7.25;;
38182;SDS011;23991;52.430;10.586;2023-03-11T01:19:12;11.85;;;8.20;;
38182;SDS011;23991;52.430;10.586;2023-03-11T01:21:38;11.18;;;7.65;;
38182;SDS011;23991;52.430;10.586;2023-03-11T01:24:04;12.30;;;7.80;;
38182;SDS011;23991;52.430;10.586;2023-03-11T01:26:30;12.88;;;8.40;;
38182;SDS011;23991;52.430;10.586;2023-03-11T01:28:55;12.43;;;7.78;;
38182;SDS011;23991;52.430;10.586;2023-03-11T01:31:21;12.57;;;8.25;;
38182;SDS011;23991;52.430;10.586;2023-03-11T01:33:46;11.00;;;7.45;;
38182;SDS011;23991;52.430;10.586;2023-03-11T01:36:12;12.90;;;8.10;;
38182;SDS011;23991;52.430;10.586;2023-03-11T01:38:37;12.75;;;7.78;;
38182;SDS011;23991;52.430;10.586;2023-03-11T01:41:03;14.60;;;8.32;;
38182;SDS011;23991;52.430;10.586;2023-03-11T01:48:37;16.20;;;9.32;;
38182;SDS011;23991;52.430;10.586;2023-03-11T01:51:04;12.93;;;8.63;;
38182;SDS011;23991;52.430;10.586;2023-03-11T01:53:31;15.52;;;9.45;;
38182;SDS011;23991;52.430;10.586;2023-03-11T01:55:57;13.32;;;9.50;;
38182;SDS011;23991;52.430;10.586;2023-03-11T01:58:24;16.05;;;9.85;;
38182;SDS011;23991;52.430;10.586;2023-03-11T02:00:54;14.18;;;8.70;;
38182;SDS011;23991;52.430;10.586;2023-03-11T02:03:22;15.45;;;9.13;;
38182;SDS011;23991;52.430;10.586;2023-03-11T02:05:51;13.73;;;8.93;;
38182;SDS011;23991;52.430;10.586;2023-03-11T02:08:19;15.35;;;9.85;;
38182;SDS011;23991;52.430;10.586;2023-03-11T02:10:45;15.20;;;9.45;;
38182;SDS011;23991;52.430;10.586;2023-03-11T02:13:12;15.52;;;9.10;;
38182;SDS011;23991;52.430;10.586;2023-03-11T02:15:39;14.85;;;9.73;;
38182;SDS011;23991;52.430;10.586;2023-03-11T02:18:04;15.45;;;10.00;;
38182;SDS011;23991;52.430;10.586;2023-03-11T02:20:46;15.75;;;9.70;;
38182;SDS011;23991;52.430;10.586;2023-03-11T02:23:20;16.38;;;9.65;;
38182;SDS011;23991;52.430;10.586;2023-03-11T02:25:51;14.07;;;9.90;;
38182;SDS011;23991;52.430;10.586;2023-03-11T02:28:18;15.87;;;9.80;;
38182;SDS011;23991;52.430;10.586;2023-03-11T02:30:45;14.65;;;9.30;;
38182;SDS011;23991;52.430;10.586;2023-03-11T02:33:12;16.83;;;9.20;;
38182;SDS011;23991;52.430;10.586;2023-03-11T02:35:38;14.73;;;9.25;;
38182;SDS011;23991;52.430;10.586;2023-03-11T02:38:04;15.27;;;8.93;;
38182;SDS011;23991;52.430;10.586;2023-03-11T02:40:35;12.55;;;8.57;;
38182;SDS011;23991;52.430;10.586;2023-03-11T02:43:04;14.27;;;8.80;;
38182;SDS011;23991;52.430;10.586;2023-03-11T02:45:33;13.52;;;8.73;;
38182;SDS011;23991;52.430;10.586;2023-03-11T02:47:59;14.07;;;8.52;;
38182;SDS011;23991;52.430;10.586;2023-03-11T02:50:26;11.93;;;8.05;;
38182;SDS011;23991;52.430;10.586;2023-03-11T02:52:53;14.30;;;8.77;;
38182;SDS011;23991;52.430;10.586;2023-03-11T02:55:19;14.98;;;8.55;;
38182;SDS011;23991;52.430;10.586;2023-03-11T02:57:45;16.08;;;9.45;;
38182;SDS011;23991;52.430;10.586;2023-03-11T03:00:12;15.15;;;9.32;;
38182;SDS011;23991;52.430;10.586;2023-03-11T03:02:40;15.27;;;9.57;;
38182;SDS011;23991;52.430;10.586;2023-03-11T03:05:07;16.25;;;9.55;;
38182;SDS011;23991;52.430;10.586;2023-03-11T03:07:34;15.50;;;9.77;;
38182;SDS011;23991;52.430;10.586;2023-03-11T03:10:00;14.35;;;8.90;;
38182;SDS011;23991;52.430;10.586;2023-03-11T03:12:26;16.77;;;9.93;;
38182;SDS011;23991;52.430;10.586;2023-03-11T03:14:51;16.40;;;9.48;;
38182;SDS011;23991;52.430;10.586;2023-03-11T03:17:17;16.17;;;10.10;;
38182;SDS011;23991;52.430;10.586;2023-03-11T03:19:42;15.00;;;8.75;;
38182;SDS011;23991;52.430;10.586;2023-03-11T03:22:08;14.82;;;9.68;;
38182;SDS011;23991;52.430;10.586;2023-03-11T03:24:33;15.45;;;9.25;;
38182;SDS011;23991;52.430;10.586;2023-03-11T03:26:59;15.18;;;9.48;;
38182;SDS011;23991;52.430;10.586;2023-03-11T03:29:24;13.77;;;8.20;;
38182;SDS011;23991;52.430;10.586;2023-03-11T03:31:50;13.05;;;8.00;;
38182;SDS011;23991;52.430;10.586;2023-03-11T03:34:15;13.95;;;9.02;;
38182;SDS011;23991;52.430;10.586;2023-03-11T03:36:41;15.25;;;9.55;;
38182;SDS011;23991;52.430;10.586;2023-03-11T03:39:06;12.85;;;8.30;;
38182;SDS011;23991;52.430;10.586;2023-03-11T03:41:32;16.25;;;9.30;;
38182;SDS011;23991;52.430;10.586;2023-03-11T03:43:57;16.80;;;9.82;;
38182;SDS011;23991;52.430;10.586;2023-03-11T03:46:23;16.25;;;9.48;;
38182;SDS011;23991;52.430;10.586;2023-03-11T03:48:49;14.15;;;8.25;;
38182;SDS011;23991;52.430;10.586;2023-03-11T03:51:15;14.98;;;8.85;;
38182;SDS011;23991;52.430;10.586;2023-03-11T03:53:41;15.65;;;8.40;;
38182;SDS011;23991;52.430;10.586;2023-03-11T03:56:08;15.57;;;8.98;;
38182;SDS011;23991;52.430;10.586;2023-03-11T03:58:35;13.75;;;7.25;;
38182;SDS011;23991;52.430;10.586;2023-03-11T04:01:00;13.80;;;8.13;;
38182;SDS011;23991;52.430;10.586;2023-03-11T04:03:27;12.63;;;7.50;;
38182;SDS011;23991;52.430;10.586;2023-03-11T04:05:53;17.05;;;8.00;;
38182;SDS011;23991;52.430;10.586;2023-03-11T04:08:19;13.88;;;7.22;;
38182;SDS011;23991;52.430;10.586;2023-03-11T04:10:44;12.63;;;7.50;;
38182;SDS011;23991;52.430;10.586;2023-03-11T04:13:20;11.88;;;6.90;;
38182;SDS011;23991;52.430;10.586;2023-03-11T04:15:45;12.65;;;7.22;;
38182;SDS011;23991;52.430;10.586;2023-03-11T04:18:10;10.70;;;6.85;;
38182;SDS011;23991;52.430;10.586;2023-03-11T04:20:37;13.30;;;7.28;;
38182;SDS011;23991;52.430;10.586;2023-03-11T04:23:03;12.82;;;6.70;;
38182;SDS011;23991;52.430;10.586;2023-03-11T04:25:28;10.50;;;6.15;;
38182;SDS011;23991;52.430;10.586;2023-03-11T04:27:54;15.27;;;7.82;;
38182;SDS011;23991;52.430;10.586;2023-03-11T04:30:19;12.98;;;7.38;;
38182;SDS011;23991;52.430;10.586;2023-03-11T04:32:44;16.80;;;7.22;;
38182;SDS011;23991;52.430;10.586;2023-03-11T04:35:10;12.88;;;8.32;;
38182;SDS011;23991;52.430;10.586;2023-03-11T04:37:35;13.80;;;7.47;;
38182;SDS011;23991;52.430;10.586;2023-03-11T04:40:01;10.10;;;6.28;;
38182;SDS011;23991;52.430;10.586;2023-03-11T04:42:28;11.68;;;7.15;;
38182;SDS011;23991;52.430;10.586;2023-03-11T04:44:53;13.43;;;7.38;;
38182;SDS011;23991;52.430;10.586;2023-03-11T04:47:19;16.15;;;7.18;;
38182;SDS011;23991;52.430;10.586;2023-03-11T04:49:45;12.73;;;6.85;;
38182;SDS011;23991;52.430;10.586;2023-03-11T04:52:11;12.55;;;7.03;;
38182;SDS011;23991;52.430;10.586;2023-03-11T04:54:36;13.85;;;6.13;;
38182;SDS011;23991;52.430;10.586;2023-03-11T04:57:02;10.93;;;6.63;;
38182;SDS011;23991;52.430;10.586;2023-03-11T04:59:27;9.98;;;6.57;;
38182;SDS011;23991;52.430;10.586;2023-03-11T05:01:53;11.35;;;6.32;;
38182;SDS011;23991;52.430;10.586;2023-03-11T05:04:19;10.50;;;6.45;;
38182;SDS011;23991;52.430;10.586;2023-03-11T05:06:44;11.38;;;6.55;;
38182;SDS011;23991;52.430;10.586;2023-03-11T05:09:10;15.45;;;7.65;;
38182;SDS011;23991;52.430;10.586;2023-03-11T05:11:35;11.00;;;6.30;;
38182;SDS011;23991;52.430;10.586;2023-03-11T05:14:01;13.10;;;7.18;;
38182;SDS011;23991;52.430;10.586;2023-03-11T05:16:26;10.60;;;6.30;;
38182;SDS011;23991;52.430;10.586;2023-03-11T05:18:52;11.82;;;6.40;;
38182;SDS011;23991;52.430;10.586;2023-03-11T05:21:17;10.23;;;6.22;;
38182;SDS011;23991;52.430;10.586;2023-03-11T05:23:43;9.18;;;5.65;;
38182;SDS011;23991;52.430;10.586;2023-03-11T05:26:09;12.38;;;5.65;;
38182;SDS011;23991;52.430;10.586;2023-03-11T05:28:35;11.48;;;6.00;;
38182;SDS011;23991;52.430;10.586;2023-03-11T05:31:00;11.73;;;5.78;;
38182;SDS011;23991;52.430;10.586;2023-03-11T05:33:26;8.90;;;5.43;;
38182;SDS011;23991;52.430;10.586;2023-03-11T05:38:27;10.95;;;5.50;;
38182;SDS011;23991;52.430;10.586;2023-03-11T05:40:52;8.75;;;5.18;;
38182;SDS011;23991;52.430;10.586;2023-03-11T05:43:18;8.85;;;5.57;;
38182;SDS011;23991;52.430;10.586;2023-03-11T05:45:43;8.55;;;5.45;;
38182;SDS011;23991;52.430;10.586;2023-03-11T05:48:09;8.60;;;5.20;;
38182;SDS011;23991;52.430;10.586;2023-03-11T05:50:34;12.93;;;8.43;;
38182;SDS011;23991;52.430;10.586;2023-03-11T05:53:00;7.72;;;5.22;;
38182;SDS011;23991;52.430;10.586;2023-03-11T05:55:25;10.50;;;4.97;;
38182;SDS011;23991;52.430;10.586;2023-03-11T05:57:51;7.03;;;4.80;;
38182;SDS011;23991;52.430;10.586;2023-03-11T06:00:16;8.57;;;5.03;;
38182;SDS011;23991;52.430;10.586;2023-03-11T06:02:44;8.05;;;4.22;;
38182;SDS011;23991;52.430;10.586;2023-03-11T06:05:09;7.47;;;4.30;;
38182;SDS011;23991;52.430;10.586;2023-03-11T06:07:35;9.90;;;4.68;;
38182;SDS011;23991;52.430;10.586;2023-03-11T06:10:01;8.00;;;4.47;;
38182;SDS011;23991;52.430;10.586;2023-03-11T06:12:28;11.23;;;4.95;;
38182;SDS011;23991;52.430;10.586;2023-03-11T06:14:53;8.88;;;4.20;;
38182;SDS011;23991;52.430;10.586;2023-03-11T06:17:19;10.88;;;4.93;;
38182;SDS011;23991;52.430;10.586;2023-03-11T06:19:44;11.18;;;5.03;;
38182;SDS011;23991;52.430;10.586;2023-03-11T06:22:10;9.00;;;4.88;;
38182;SDS011;23991;52.430;10.586;2023-03-11T06:24:35;9.13;;;4.80;;
38182;SDS011;23991;52.430;10.586;2023-03-11T06:27:01;9.57;;;5.35;;
38182;SDS011;23991;52.430;10.586;2023-03-11T06:29:27;10.20;;;4.45;;
38182;SDS011;23991;52.430;10.586;2023-03-11T06:31:54;7.38;;;4.50;;
38182;SDS011;23991;52.430;10.586;2023-03-11T06:34:19;6.53;;;4.55;;
38182;SDS011;23991;52.430;10.586;2023-03-11T06:36:45;9.65;;;4.80;;
38182;SDS011;23991;52.430;10.586;2023-03-11T06:39:12;10.07;;;4.75;;
38182;SDS011;23991;52.430;10.586;2023-03-11T06:41:38;7.47;;;4.15;;
38182;SDS011;23991;52.430;10.586;2023-03-11T06:44:04;9.18;;;5.20;;
38182;SDS011;23991;52.430;10.586;2023-03-11T06:46:30;8.63;;;4.78;;
38182;SDS011;23991;52.430;10.586;2023-03-11T06:48:55;9.93;;;4.90;;
38182;SDS011;23991;52.430;10.586;2023-03-11T06:51:21;12.18;;;4.60;;
38182;SDS011;23991;52.430;10.586;2023-03-11T06:53:47;10.60;;;5.72;;
38182;SDS011;23991;52.430;10.586;2023-03-11T07:06:54;12.48;;;6.50;;
38182;SDS011;23991;52.430;10.586;2023-03-11T07:09:19;16.10;;;6.32;;
38182;SDS011;23991;52.430;10.586;2023-03-11T07:11:55;12.43;;;6.47;;
38182;SDS011;23991;52.430;10.586;2023-03-11T07:14:23;12.35;;;6.15;;
38182;SDS011;23991;52.430;10.586;2023-03-11T07:16:49;9.55;;;5.38;;
38182;SDS011;23991;52.430;10.586;2023-03-11T07:19:17;11.73;;;5.43;;
38182;SDS011;23991;52.430;10.586;2023-03-11T07:21:42;9.93;;;5.53;;
38182;SDS011;23991;52.430;10.586;2023-03-11T07:24:09;11.27;;;5.50;;
38182;SDS011;23991;52.430;10.586;2023-03-11T07:26:37;10.07;;;5.82;;
38182;SDS011;23991;52.430;10.586;2023-03-11T07:29:02;12.23;;;5.70;;
38182;SDS011;23991;52.430;10.586;2023-03-11T07:31:30;11.93;;;5.28;;
38182;SDS011;23991;52.430;10.586;2023-03-11T07:34:01;11.77;;;5.53;;
38182;SDS011;23991;52.430;10.586;2023-03-11T07:36:29;10.73;;;4.85;;
38182;SDS011;23991;52.430;10.586;2023-03-11T07:38:55;9.98;;;5.55;;
38182;SDS011;23991;52.430;10.586;2023-03-11T07:41:23;8.70;;;5.72;;
38182;SDS011;23991;52.430;10.586;2023-03-11T07:43:52;11.45;;;6.05;;
38182;SDS011;23991;52.430;10.586;2023-03-11T07:46:18;11.73;;;6.17;;
38182;SDS011;23991;52.430;10.586;2023-03-11T07:48:45;12.98;;;6.57;;
38182;SDS011;23991;52.430;10.586;2023-03-11T07:51:12;11.13;;;6.03;;
38182;SDS011;23991;52.430;10.586;2023-03-11T07:53:39;9.68;;;5.45;;
38182;SDS011;23991;52.430;10.586;2023-03-11T07:56:05;11.32;;;5.88;;
38182;SDS011;23991;52.430;10.586;2023-03-11T08:01:11;12.82;;;6.72;;
38182;SDS011;23991;52.430;10.586;2023-03-11T08:03:40;13.35;;;6.63;;
38182;SDS011;23991;52.430;10.586;2023-03-11T08:06:16;13.98;;;6.25;;
38182;SDS011;23991;52.430;10.586;2023-03-11T08:08:43;12.93;;;6.30;;
38182;SDS011;23991;52.430;10.586;2023-03-11T08:11:10;9.50;;;5.95;;
38182;SDS011;23991;52.430;10.586;2023-03-11T08:13:37;12.40;;;6.47;;
38182;SDS011;23991;52.430;10.586;2023-03-11T08:16:04;12.82;;;7.40;;
38182;SDS011;23991;52.430;10.586;2023-03-11T08:18:30;14.93;;;7.28;;
38182;SDS011;23991;52.430;10.586;2023-03-11T08:20:56;16.05;;;7.45;;
38182;SDS011;23991;52.430;10.586;2023-03-11T08:23:22;12.00;;;6.20;;
38182;SDS011;23991;52.430;10.586;2023-03-11T08:25:47;11.48;;;6.57;;
38182;SDS011;23991;52.430;10.586;2023-03-11T08:28:13;10.38;;;6.72;;
38182;SDS011;23991;52.430;10.586;2023-03-11T08:30:38;10.80;;;6.20;;
38182;SDS011;23991;52.430;10.586;2023-03-11T08:33:04;9.30;;;6.05;;
38182;SDS011;23991;52.430;10.586;2023-03-11T08:35:30;12.75;;;6.22;;
38182;SDS011;23991;52.430;10.586;2023-03-11T08:37:56;15.10;;;6.40;;
38182;SDS011;23991;52.430;10.586;2023-03-11T08:40:21;15.25;;;6.60;;
38182;SDS011;23991;52.430;10.586;2023-03-11T08:42:47;10.85;;;6.43;;
38182;SDS011;23991;52.430;10.586;2023-03-11T08:45:13;14.68;;;7.13;;
38182;SDS011;23991;52.430;10.586;2023-03-11T08:47:38;10.82;;;6.63;;
38182;SDS011;23991;52.430;10.586;2023-03-11T08:50:05;11.48;;;6.82;;
38182;SDS011;23991;52.430;10.586;2023-03-11T08:52:35;13.38;;;6.30;;
38182;SDS011;23991;52.430;10.586;2023-03-11T08:55:01;13.52;;;6.47;;
38182;SDS011;23991;52.430;10.586;2023-03-11T08:57:28;10.30;;;6.57;;
38182;SDS011;23991;52.430;10.586;2023-03-11T08:59:54;11.55;;;6.25;;
38182;SDS011;23991;52.430;10.586;2023-03-11T09:02:22;9.45;;;6.00;;
38182;SDS011;23991;52.430;10.586;2023-03-11T09:04:48;9.15;;;6.32;;
38182;SDS011;23991;52.430;10.586;2023-03-11T09:07:13;11.02;;;6.20;;
38182;SDS011;23991;52.430;10.586;2023-03-11T09:30:22;11.55;;;6.25;;
38182;SDS011;23991;52.430;10.586;2023-03-11T09:32:47;11.27;;;5.70;;
38182;SDS011;23991;52.430;10.586;2023-03-11T09:35:13;10.70;;;6.25;;
38182;SDS011;23991;52.430;10.586;2023-03-11T09:37:38;10.50;;;6.03;;
38182;SDS011;23991;52.430;10.586;2023-03-11T10:01:20;9.30;;;5.63;;
38182;SDS011;23991;52.430;10.586;2023-03-11T10:06:44;9.38;;;5.55;;
38182;SDS011;23991;52.430;10.586;2023-03-11T10:20:02;7.07;;;4.32;;
38182;SDS011;23991;52.430;10.586;2023-03-11T10:25:09;6.15;;;4.95;;
38182;SDS011;23991;52.430;10.586;2023-03-11T10:33:01;7.55;;;4.60;;
38182;SDS011;23991;52.430;10.586;2023-03-11T10:35:40;7.38;;;4.68;;
38182;SDS011;23991;52.430;10.586;2023-03-11T10:38:27;7.20;;;4.72;;
38182;SDS011;23991;52.430;10.586;2023-03-11T10:40:57;6.38;;;3.65;;
38182;SDS011;23991;52.430;10.586;2023-03-11T10:43:28;10.63;;;4.15;;
38182;SDS011;23991;52.430;10.586;2023-03-11T10:45:58;8.25;;;4.65;;
38182;SDS011;23991;52.430;10.586;2023-03-11T10:48:26;6.10;;;3.67;;
38182;SDS011;23991;52.430;10.586;2023-03-11T10:53:47;7.45;;;4.45;;
38182;SDS011;23991;52.430;10.586;2023-03-11T10:59:26;4.78;;;3.25;;
38182;SDS011;23991;52.430;10.586;2023-03-11T11:04:35;6.85;;;3.22;;
38182;SDS011;23991;52.430;10.586;2023-03-11T11:10:13;8.25;;;3.60;;
38182;SDS011;23991;52.430;10.586;2023-03-11T11:13:00;6.53;;;3.50;;
38182;SDS011;23991;52.430;10.586;2023-03-11T11:16:15;6.53;;;3.65;;
38182;SDS011;23991;52.430;10.586;2023-03-11T11:18:45;7.43;;;3.45;;
38182;SDS011;23991;52.430;10.586;2023-03-11T11:21:35;9.80;;;4.80;;
38182;SDS011;23991;52.430;10.586;2023-03-11T11:29:42;5.13;;;2.83;;
38182;SDS011;23991;52.430;10.586;2023-03-11T11:34:51;7.03;;;2.85;;
38182;SDS011;23991;52.430;10.586;2023-03-11T11:37:19;6.95;;;2.90;;
38182;SDS011;23991;52.430;10.586;2023-03-11T11:39:48;4.85;;;2.70;;
38182;SDS011;23991;52.430;10.586;2023-03-11T11:42:17;6.07;;;3.05;;
38182;SDS011;23991;52.430;10.586;2023-03-11T11:44:46;5.18;;;3.00;;
38182;SDS011;23991;52.430;10.586;2023-03-11T11:47:16;6.15;;;2.70;;
38182;SDS011;23991;52.430;10.586;2023-03-11T11:49:53;4.85;;;2.83;;
38182;SDS011;23991;52.430;10.586;2023-03-11T11:52:24;4.85;;;3.33;;
38182;SDS011;23991;52.430;10.586;2023-03-11T11:57:54;6.90;;;3.65;;
38182;SDS011;23991;52.430;10.586;2023-03-11T12:00:21;5.68;;;2.45;;
38182;SDS011;23991;52.430;10.586;2023-03-11T12:06:28;7.93;;;3.33;;
38182;SDS011;23991;52.430;10.586;2023-03-11T12:14:20;6.05;;;2.10;;
38182;SDS011;23991;52.430;10.586;2023-03-11T12:16:54;4.80;;;2.28;;
38182;SDS011;23991;52.430;10.586;2023-03-11T12:19:26;5.00;;;2.83;;
38182;SDS011;23991;52.430;10.586;2023-03-11T12:27:26;5.10;;;2.20;;
38182;SDS011;23991;52.430;10.586;2023-03-11T12:29:58;7.97;;;2.38;;
38182;SDS011;23991;52.430;10.586;2023-03-11T12:32:37;7.15;;;2.38;;
38182;SDS011;23991;52.430;10.586;2023-03-11T12:38:15;10.35;;;2.55;;
38182;SDS011;23991;52.430;10.586;2023-03-11T12:43:22;3.75;;;1.88;;
38182;SDS011;23991;52.430;10.586;2023-03-11T12:45:49;4.45;;;2.20;;
38182;SDS011;23991;52.430;10.586;2023-03-11T12:50:51;6.18;;;2.10;;
38182;SDS011;23991;52.430;10.586;2023-03-11T12:53:16;3.90;;;1.80;;
38182;SDS011;23991;52.430;10.586;2023-03-11T12:55:54;5.80;;;2.05;;
38182;SDS011;23991;52.430;10.586;2023-03-11T13:04:13;5.05;;;2.10;;
38182;SDS011;23991;52.430;10.586;2023-03-11T13:06:57;8.63;;;1.83;;
38182;SDS011;23991;52.430;10.586;2023-03-11T13:09:37;5.13;;;1.77;;
38182;SDS011;23991;52.430;10.586;2023-03-11T13:12:02;5.38;;;1.70;;
38182;SDS011;23991;52.430;10.586;2023-03-11T13:14:48;5.53;;;2.00;;
38182;SDS011;23991;52.430;10.586;2023-03-11T13:18:40;4.10;;;1.75;;
38182;SDS011;23991;52.430;10.586;2023-03-11T13:20:48;2.17;;;1.40;;
38182;SDS011;23991;52.430;10.586;2023-03-11T13:23:26;4.28;;;1.70;;
38182;SDS011;23991;52.430;10.586;2023-03-11T13:28:44;6.25;;;2.08;;
38182;SDS011;23991;52.430;10.586;2023-03-11T13:39:48;7.00;;;1.90;;
38182;SDS011;23991;52.430;10.586;2023-03-11T13:42:42;9.15;;;4.05;;
38182;SDS011;23991;52.430;10.586;2023-03-11T13:45:15;3.75;;;1.42;;
38182;SDS011;23991;52.430;10.586;2023-03-11T13:47:48;4.40;;;1.98;;
38182;SDS011;23991;52.430;10.586;2023-03-11T13:50:28;7.25;;;1.70;;
38182;SDS011;23991;52.430;10.586;2023-03-11T13:52:59;6.15;;;2.05;;
38182;SDS011;23991;52.430;10.586;2023-03-11T13:55:37;5.63;;;1.80;;
38182;SDS011;23991;52.430;10.586;2023-03-11T13:58:28;6.25;;;1.92;;
38182;SDS011;23991;52.430;10.586;2023-03-11T14:00:54;4.70;;;2.30;;
38182;SDS011;23991;52.430;10.586;2023-03-11T14:03:25;7.45;;;2.13;;
38182;SDS011;23991;52.430;10.586;2023-03-11T14:06:05;6.65;;;1.67;;
38182;SDS011;23991;52.430;10.586;2023-03-11T14:08:35;5.53;;;1.70;;
38182;SDS011;23991;52.430;10.586;2023-03-11T14:11:02;6.70;;;2.00;;
38182;SDS011;23991;52.430;10.586;2023-03-11T14:13:38;4.07;;;1.73;;
38182;SDS011;23991;52.430;10.586;2023-03-11T14:18:44;5.78;;;1.75;;
38182;SDS011;23991;52.430;10.586;2023-03-11T14:21:25;4.13;;;1.92;;
38182;SDS011;23991;52.430;10.586;2023-03-11T14:23:52;4.22;;;1.65;;
38182;SDS011;23991;52.430;10.586;2023-03-11T14:26:26;12.20;;;1.95;;
38182;SDS011;23991;52.430;10.586;2023-03-11T14:31:36;5.75;;;1.70;;
38182;SDS011;23991;52.430;10.586;2023-03-11T14:42:09;5.10;;;1.88;;
38182;SDS011;23991;52.430;10.586;2023-03-11T14:45:02;5.03;;;1.58;;
38182;SDS011;23991;52.430;10.586;2023-03-11T14:47:40;6.85;;;1.58;;
38182;SDS011;23991;52.430;10.586;2023-03-11T14:50:09;5.50;;;1.58;;
38182;SDS011;23991;52.430;10.586;2023-03-11T14:52:48;6.95;;;1.92;;
38182;SDS011;23991;52.430;10.586;2023-03-11T15:00:33;4.85;;;1.58;;
38182;SDS011;23991;52.430;10.586;2023-03-11T15:03:03;4.80;;;1.77;;
38182;SDS011;23991;52.430;10.586;2023-03-11T15:08:12;9.98;;;1.90;;
38182;SDS011;23991;52.430;10.586;2023-03-11T15:13:28;5.45;;;1.75;;
38182;SDS011;23991;52.430;10.586;2023-03-11T15:15:55;5.90;;;1.40;;
38182;SDS011;23991;52.430;10.586;2023-03-11T15:18:22;6.20;;;1.70;;
38182;SDS011;23991;52.430;10.586;2023-03-11T15:21:10;6.88;;;1.88;;
38182;SDS011;23991;52.430;10.586;2023-03-11T15:23:38;9.15;;;1.73;;
38182;SDS011;23991;52.430;10.586;2023-03-11T15:26:15;3.83;;;1.70;;
38182;SDS011;23991;52.430;10.586;2023-03-11T15:31:27;6.97;;;2.45;;
38182;SDS011;23991;52.430;10.586;2023-03-11T15:34:06;6.43;;;1.60;;
38182;SDS011;23991;52.430;10.586;2023-03-11T15:36:34;7.20;;;1.98;;
38182;SDS011;23991;52.430;10.586;2023-03-11T15:39:10;6.47;;;1.55;;
38182;SDS011;23991;52.430;10.586;2023-03-11T17:00:13;8.45;;;1.58;;
38182;SDS011;23991;52.430;10.586;2023-03-11T17:02:42;4.22;;;1.42;;
38182;SDS011;23991;52.430;10.586;2023-03-11T17:05:08;5.90;;;2.03;;
38182;SDS011;23991;52.430;10.586;2023-03-11T17:07:34;5.50;;;1.85;;
38182;SDS011;23991;52.430;10.586;2023-03-11T17:10:00;3.22;;;1.73;;
38182;SDS011;23991;52.430;10.586;2023-03-11T17:12:26;5.60;;;2.05;;
38182;SDS011;23991;52.430;10.586;2023-03-11T17:14:52;5.25;;;1.95;;
38182;SDS011;23991;52.430;10.586;2023-03-11T17:17:19;5.40;;;1.85;;
38182;SDS011;23991;52.430;10.586;2023-03-11T17:19:45;6.03;;;2.13;;
38182;SDS011;23991;52.430;10.586;2023-03-11T17:22:11;5.35;;;2.00;;
38182;SDS011;23991;52.430;10.586;2023-03-11T17:24:37;5.43;;;2.00;;
38182;SDS011;23991;52.430;10.586;2023-03-11T17:27:03;6.13;;;2.38;;
38182;SDS011;23991;52.430;10.586;2023-03-11T17:29:28;4.28;;;1.80;;
38182;SDS011;23991;52.430;10.586;2023-03-11T17:31:54;3.63;;;1.95;;
38182;SDS011;23991;52.430;10.586;2023-03-11T17:34:19;3.05;;;1.60;;
38182;SDS011;23991;52.430;10.586;2023-03-11T17:36:45;4.57;;;1.60;;
38182;SDS011;23991;52.430;10.586;2023-03-11T17:39:11;3.13;;;1.92;;
38182;SDS011;23991;52.430;10.586;2023-03-11T17:41:37;5.00;;;1.80;;
38182;SDS011;23991;52.430;10.586;2023-03-11T17:44:02;7.20;;;1.58;;
38182;SDS011;23991;52.430;10.586;2023-03-11T17:46:28;3.58;;;1.75;;
38182;SDS011;23991;52.430;10.586;2023-03-11T17:48:53;4.97;;;1.70;;
38182;SDS011;23991;52.430;10.586;2023-03-11T17:51:19;6.07;;;1.70;;
38182;SDS011;23991;52.430;10.586;2023-03-11T17:53:47;4.03;;;1.50;;
38182;SDS011;23991;52.430;10.586;2023-03-11T17:56:14;4.57;;;1.70;;
38182;SDS011;23991;52.430;10.586;2023-03-11T17:58:41;7.30;;;1.98;;
38182;SDS011;23991;52.430;10.586;2023-03-11T18:01:08;4.32;;;1.40;;
38182;SDS011;23991;52.430;10.586;2023-03-11T18:03:36;9.73;;;1.63;;
38182;SDS011;23991;52.430;10.586;2023-03-11T18:06:03;4.60;;;1.63;;
38182;SDS011;23991;52.430;10.586;2023-03-11T18:08:29;9.13;;;1.60;;
38182;SDS011;23991;52.430;10.586;2023-03-11T18:11:00;4.75;;;1.50;;
38182;SDS011;23991;52.430;10.586;2023-03-11T18:13:27;7.22;;;1.70;;
38182;SDS011;23991;52.430;10.586;2023-03-11T18:16:12;2.88;;;1.67;;
38182;SDS011;23991;52.430;10.586;2023-03-11T18:18:39;3.90;;;1.88;;
38182;SDS011;23991;52.430;10.586;2023-03-11T18:21:07;5.05;;;2.33;;
38182;SDS011;23991;52.430;10.586;2023-03-11T18:23:35;7.25;;;2.70;;
38182;SDS011;23991;52.430;10.586;2023-03-11T18:26:02;5.22;;;2.15;;
38182;SDS011;23991;52.430;10.586;2023-03-11T18:28:29;4.68;;;1.50;;
38182;SDS011;23991;52.430;10.586;2023-03-11T18:30:55;6.43;;;1.85;;
38182;SDS011;23991;52.430;10.586;2023-03-11T18:33:21;5.72;;;1.67;;
38182;SDS011;23991;52.430;10.586;2023-03-11T18:35:47;4.05;;;1.73;;
38182;SDS011;23991;52.430;10.586;2023-03-11T18:38:13;6.55;;;1.60;;
38182;SDS011;23991;52.430;10.586;2023-03-11T18:40:39;5.55;;;2.13;;
38182;SDS011;23991;52.430;10.586;2023-03-11T18:43:04;4.18;;;1.75;;
38182;SDS011;23991;52.430;10.586;2023-03-11T18:45:30;8.25;;;1.83;;
38182;SDS011;23991;52.430;10.586;2023-03-11T18:47:56;4.43;;;1.35;;
38182;SDS011;23991;52.430;10.586;2023-03-11T18:50:21;6.15;;;2.03;;